« Back
NWS Peachtree City, Ga » Text Product » CSG Terminal Aerodrome Forecast


Printer-friendly Version
Current Version              Previous Versions:   1  2  3  4  5  6  7  8  9  

Terminal Aerodrome Forecast

302
FTUS42 KFFC 062328
TAFCSG
TAF
KCSG 062328Z 0700/0724 05006KT P6SM SCT090
     FM070600 36004KT P6SM SCT250
     FM071500 33008KT P6SM SCT120
     FM071800 33012KT P6SM SCT250=

USA.gov is the U.S. government's official web portal to all federal, state and local government web resources and services.